createdAt,value
2023-04-21T00:01:56.453Z,55.90
2023-04-21T00:04:24.125Z,57.42
2023-04-21T00:06:53.308Z,59.47
2023-04-21T00:09:20.618Z,58.97
2023-04-21T00:11:48.004Z,60.08
2023-04-21T00:14:14.745Z,59.97
2023-04-21T00:16:42.069Z,62.30
2023-04-21T00:19:08.824Z,62.53
2023-04-21T00:21:36.614Z,63.45
2023-04-21T00:24:03.811Z,60.22
2023-04-21T00:26:31.211Z,64.25
2023-04-21T00:28:58.780Z,64.90
2023-04-21T00:31:26.306Z,61.13
2023-04-21T00:33:53.803Z,61.13
2023-04-21T00:36:24.977Z,60.38
2023-04-21T00:38:52.731Z,63.05
2023-04-21T00:41:20.016Z,62.83
2023-04-21T00:44:07.079Z,61.13
2023-04-21T00:46:35.445Z,59.05
2023-04-21T00:49:04.946Z,58.38
2023-04-21T00:51:34.813Z,58.40
2023-04-21T00:54:04.719Z,60.25
2023-04-21T00:56:33.834Z,59.58
2023-04-21T00:59:04.505Z,61.95
2023-04-21T01:01:34.525Z,61.85
2023-04-21T01:04:02.423Z,61.10
2023-04-21T01:06:36.777Z,63.13
2023-04-21T01:09:06.964Z,62.55
2023-04-21T01:11:36.813Z,59.80
2023-04-21T01:14:03.497Z,59.13
2023-04-21T01:16:32.644Z,62.58
2023-04-21T01:19:01.016Z,60.38
2023-04-21T01:21:29.272Z,61.53
2023-04-21T01:23:55.982Z,61.70
2023-04-21T01:26:23.800Z,60.17
2023-04-21T01:28:50.542Z,61.33
2023-04-21T01:31:18.599Z,60.88
2023-04-21T01:33:45.574Z,60.17
2023-04-21T01:36:13.024Z,59.42
2023-04-21T01:38:40.982Z,60.08
2023-04-21T01:41:09.009Z,60.55
2023-04-21T01:43:37.034Z,57.53
2023-04-21T01:46:05.816Z,58.92
2023-04-21T01:48:32.490Z,61.63
2023-04-21T01:50:59.419Z,61.38
2023-04-21T01:53:27.191Z,60.90
2023-04-21T01:55:53.843Z,61.70
2023-04-21T01:58:21.851Z,61.00
2023-04-21T02:00:48.544Z,61.47
2023-04-21T02:03:16.155Z,61.58
2023-04-21T02:05:46.062Z,63.28
2023-04-21T02:08:13.161Z,62.42
2023-04-21T02:10:41.124Z,62.28
2023-04-21T02:13:11.938Z,62.70
2023-04-21T02:15:38.679Z,63.70
2023-04-21T02:18:08.493Z,64.10
2023-04-21T02:20:35.420Z,64.45
2023-04-21T02:23:02.758Z,63.00
2023-04-21T02:25:29.920Z,63.83
2023-04-21T02:27:57.142Z,60.45
2023-04-21T02:30:26.925Z,62.88
2023-04-21T02:32:54.121Z,64.38
2023-04-21T02:35:20.993Z,64.25
2023-04-21T02:37:47.903Z,65.63
2023-04-21T02:40:15.688Z,65.20
2023-04-21T02:42:43.022Z,65.90
2023-04-21T02:45:10.561Z,65.18
2023-04-21T02:47:37.805Z,63.00
2023-04-21T02:50:04.785Z,64.03
2023-04-21T02:52:37.342Z,63.40
2023-04-21T02:55:04.346Z,62.83
2023-04-21T02:57:31.574Z,62.55
2023-04-21T02:59:59.930Z,62.10
2023-04-21T03:02:27.447Z,62.92
2023-04-21T03:04:54.088Z,62.35
2023-04-21T03:07:21.436Z,59.67
2023-04-21T03:09:48.102Z,58.80
2023-04-21T03:12:15.378Z,57.55
2023-04-21T03:14:42.226Z,55.75
2023-04-21T03:17:09.562Z,56.08
2023-04-21T03:19:36.277Z,54.97
2023-04-21T03:22:04.292Z,52.42
2023-04-21T03:24:31.348Z,52.47
2023-04-21T03:26:58.774Z,52.53
2023-04-21T03:29:25.464Z,52.60
2023-04-21T03:31:52.728Z,50.90
2023-04-21T03:34:20.282Z,54.15
2023-04-21T03:36:47.783Z,54.70
2023-04-21T03:41:46.401Z,52.72
2023-04-21T03:44:13.000Z,54.58
2023-04-21T03:46:40.384Z,57.25
2023-04-21T03:49:07.021Z,54.15
2023-04-21T03:51:34.294Z,55.35
2023-04-21T03:54:00.906Z,55.10
2023-04-21T03:56:27.827Z,54.65
2023-04-21T03:58:55.114Z,57.17
2023-04-21T04:01:21.876Z,56.83
2023-04-21T04:03:49.434Z,55.78
2023-04-21T04:06:16.388Z,53.70
2023-04-21T04:08:43.627Z,54.50
2023-04-21T04:11:10.360Z,55.17
2023-04-21T04:13:37.599Z,55.40
2023-04-21T04:16:04.442Z,56.10
2023-04-21T04:18:31.733Z,57.50
2023-04-21T04:20:58.398Z,57.05
2023-04-21T04:23:26.316Z,54.75
2023-04-21T04:25:52.928Z,56.95
2023-04-21T04:28:20.152Z,55.83
2023-04-21T04:30:46.752Z,55.15
2023-04-21T04:33:14.026Z,56.53
2023-04-21T04:35:40.917Z,52.97
2023-04-21T04:38:08.147Z,56.67
2023-04-21T04:40:34.800Z,55.40
2023-04-21T04:43:02.858Z,56.40
2023-04-21T04:45:32.824Z,56.88
2023-04-21T04:48:00.472Z,60.67
2023-04-21T04:50:27.262Z,60.97
2023-04-21T04:52:54.549Z,63.22
2023-04-21T04:55:22.007Z,62.03
2023-04-21T04:57:49.834Z,61.28
2023-04-21T05:00:17.111Z,61.08
2023-04-21T05:02:44.546Z,60.55
2023-04-21T05:05:11.664Z,61.20
2023-04-21T05:07:39.111Z,61.70
2023-04-21T05:10:06.128Z,62.88
2023-04-21T05:12:33.204Z,61.45
2023-04-21T05:14:59.809Z,61.70
2023-04-21T05:17:27.479Z,62.30
2023-04-21T05:19:54.114Z,59.75
2023-04-21T05:22:21.006Z,58.70
2023-04-21T05:24:48.156Z,59.28
2023-04-21T05:27:15.236Z,56.30
2023-04-21T05:29:41.887Z,55.13
2023-04-21T05:32:09.127Z,52.83
2023-04-21T05:34:36.531Z,50.72
2023-04-21T05:37:03.219Z,47.50
2023-04-21T05:39:30.850Z,45.35
2023-04-21T05:41:58.215Z,42.95
2023-04-21T05:44:25.824Z,44.72
2023-04-21T05:46:52.495Z,46.50
2023-04-21T05:49:19.767Z,46.38
2023-04-21T05:51:46.637Z,46.05
2023-04-21T05:54:13.908Z,46.35
2023-04-21T05:56:40.491Z,46.83
2023-04-21T05:59:07.742Z,47.47
2023-04-21T06:01:34.426Z,47.22
2023-04-21T06:04:02.138Z,44.20
2023-04-21T06:06:29.013Z,39.13
2023-04-21T06:08:56.367Z,35.42
2023-04-21T06:11:23.767Z,33.22
2023-04-21T06:13:53.808Z,32.42
2023-04-21T06:16:20.748Z,33.72
2023-04-21T06:18:47.810Z,32.95
2023-04-21T06:21:15.107Z,30.27
2023-04-21T06:23:42.229Z,31.65
2023-04-21T06:26:09.667Z,30.25
2023-04-21T06:28:36.947Z,30.10
2023-04-21T06:31:07.833Z,31.38
2023-04-21T06:33:35.682Z,31.60
2023-04-21T06:36:03.025Z,32.17
2023-04-21T06:38:29.700Z,30.83
2023-04-21T06:40:57.077Z,33.22
2023-04-21T06:43:23.747Z,31.23
2023-04-21T06:45:50.895Z,32.65
2023-04-21T06:48:17.548Z,31.92
2023-04-21T06:50:46.549Z,32.95
2023-04-21T06:53:13.256Z,32.15
2023-04-21T06:55:40.684Z,34.10
2023-04-21T06:58:07.328Z,33.38
2023-04-21T07:00:34.666Z,34.10
2023-04-21T07:03:01.481Z,31.52
2023-04-21T07:05:29.297Z,31.23
2023-04-21T07:07:59.610Z,33.47
2023-04-21T07:10:27.623Z,33.22
2023-04-21T07:12:55.269Z,33.25
2023-04-21T07:15:22.777Z,31.00
2023-04-21T07:17:49.465Z,30.48
2023-04-21T07:20:18.881Z,31.63
2023-04-21T07:22:45.599Z,30.85
2023-04-21T07:25:13.204Z,32.25
2023-04-21T07:27:40.141Z,32.75
2023-04-21T07:30:08.159Z,31.70
2023-04-21T07:32:37.454Z,33.28
2023-04-21T07:35:06.573Z,32.92
2023-04-21T07:37:33.246Z,31.05
2023-04-21T07:40:00.630Z,31.85
2023-04-21T07:42:27.406Z,30.40
2023-04-21T07:44:56.244Z,30.52
2023-04-21T07:47:22.949Z,30.88
2023-04-21T07:49:50.318Z,29.92
2023-04-21T07:52:17.030Z,29.77
2023-04-21T07:54:44.286Z,30.48
2023-04-21T07:57:11.004Z,28.13
2023-04-21T07:59:38.081Z,27.63
2023-04-21T08:02:05.690Z,28.20
2023-04-21T08:04:32.571Z,29.40
2023-04-21T08:06:59.546Z,27.67
2023-04-21T08:09:27.381Z,28.73
2023-04-21T08:11:55.269Z,29.13
2023-04-21T08:14:22.681Z,28.88
2023-04-21T08:16:49.756Z,30.60
2023-04-21T08:19:16.921Z,30.55
2023-04-21T08:21:43.672Z,32.70
2023-04-21T08:24:11.105Z,30.25
2023-04-21T08:26:37.865Z,30.70
2023-04-21T08:29:07.585Z,32.25
2023-04-21T08:31:34.432Z,33.65
2023-04-21T08:34:03.042Z,32.03
2023-04-21T08:36:31.577Z,32.25
2023-04-21T08:38:58.744Z,33.05
2023-04-21T08:44:20.848Z,37.30
2023-04-21T08:46:53.882Z,37.10
2023-04-21T08:49:23.273Z,37.05
2023-04-21T08:51:50.179Z,39.70
2023-04-21T08:54:21.818Z,40.65
2023-04-21T08:56:49.741Z,39.50
2023-04-21T08:59:16.424Z,38.42
2023-04-21T09:02:21.031Z,36.03
2023-04-21T09:04:54.936Z,35.65
2023-04-21T09:07:41.343Z,35.03
2023-04-21T09:10:09.078Z,33.67
2023-04-21T09:12:38.525Z,35.22
2023-04-21T09:15:06.743Z,32.92
2023-04-21T09:17:33.656Z,32.58
2023-04-21T09:20:19.167Z,31.15
2023-04-21T09:22:47.849Z,30.65
2023-04-21T09:25:19.976Z,30.23
2023-04-21T09:27:47.986Z,22.85
2023-04-21T09:30:20.004Z,30.35
2023-04-21T09:32:46.944Z,29.30
2023-04-21T09:35:13.683Z,29.45
2023-04-21T09:37:43.750Z,30.17
2023-04-21T09:40:13.815Z,29.27
2023-04-21T09:42:43.939Z,28.83
2023-04-21T09:47:43.551Z,28.52
2023-04-21T09:50:13.432Z,27.98
2023-04-21T09:52:43.654Z,26.00
2023-04-21T09:55:13.794Z,27.10
2023-04-21T09:57:44.096Z,26.58
2023-04-21T10:00:13.382Z,25.77
2023-04-21T10:02:47.514Z,26.67
2023-04-21T10:05:14.634Z,25.08
2023-04-21T10:07:41.340Z,28.10
2023-04-21T10:10:14.188Z,27.63
2023-04-21T10:12:41.607Z,27.17
2023-04-21T10:15:41.438Z,29.20
2023-04-21T10:18:25.422Z,28.92
2023-04-21T10:20:56.511Z,27.00
2023-04-21T10:23:30.932Z,29.15
2023-04-21T10:26:23.481Z,30.13
2023-04-21T10:29:01.594Z,30.17
2023-04-21T10:31:43.982Z,29.65
2023-04-21T10:34:14.159Z,28.77
2023-04-21T10:37:07.206Z,26.23
2023-04-21T10:42:17.008Z,27.42
2023-04-21T10:44:53.622Z,28.77
2023-04-21T10:47:46.450Z,27.52
2023-04-21T10:50:22.525Z,26.60
2023-04-21T10:53:11.809Z,25.55
2023-04-21T10:55:39.268Z,26.27
2023-04-21T10:58:11.990Z,27.13
2023-04-21T11:00:39.558Z,27.25
2023-04-21T11:03:08.160Z,25.63
2023-04-21T11:05:40.725Z,25.98
2023-04-21T11:08:13.260Z,24.45
2023-04-21T11:10:48.923Z,24.85
2023-04-21T11:13:16.264Z,22.83
2023-04-21T11:15:56.986Z,23.55
2023-04-21T11:18:44.684Z,21.88
2023-04-21T11:21:18.400Z,23.88
2023-04-21T11:23:49.904Z,24.13
2023-04-21T11:26:17.209Z,23.30
2023-04-21T11:28:47.389Z,21.10
2023-04-21T11:31:14.108Z,19.95
2023-04-21T11:33:41.714Z,19.92
2023-04-21T11:36:08.661Z,21.13
2023-04-21T11:38:43.086Z,22.02
2023-04-21T11:41:11.240Z,21.77
2023-04-21T11:43:39.531Z,20.67
2023-04-21T11:46:33.404Z,21.30
2023-04-21T11:49:01.899Z,19.98
2023-04-21T11:51:39.246Z,22.42
2023-04-21T11:54:08.434Z,21.73
2023-04-21T11:56:40.708Z,22.80
2023-04-21T11:59:11.815Z,22.63
2023-04-21T12:01:53.316Z,22.33
2023-04-21T12:04:22.727Z,20.48
2023-04-21T12:07:01.746Z,23.77
2023-04-21T12:09:29.872Z,23.27
2023-04-21T12:11:59.158Z,23.77
2023-04-21T12:14:29.128Z,22.70
2023-04-21T12:16:57.725Z,22.80
2023-04-21T12:19:43.590Z,24.50
2023-04-21T12:22:12.886Z,24.27
2023-04-21T12:24:40.461Z,23.05
2023-04-21T12:27:08.136Z,23.40
2023-04-21T12:29:35.653Z,24.17
2023-04-21T12:32:03.288Z,24.08
2023-04-21T12:34:30.293Z,23.95
2023-04-21T12:36:58.048Z,22.92
2023-04-21T12:39:24.904Z,24.58
2023-04-21T12:41:52.233Z,23.83
2023-04-21T12:44:19.229Z,24.70
2023-04-21T12:46:46.608Z,24.70
2023-04-21T12:49:14.445Z,24.13
2023-04-21T12:51:41.783Z,23.13
2023-04-21T12:54:08.653Z,23.17
2023-04-21T12:56:36.486Z,24.92
2023-04-21T12:59:03.242Z,21.90
2023-04-21T13:01:30.349Z,23.70
2023-04-21T13:03:57.957Z,22.55
2023-04-21T13:06:24.907Z,20.05
2023-04-21T13:08:51.837Z,19.05
2023-04-21T13:11:18.720Z,22.85
2023-04-21T13:13:46.134Z,19.05
2023-04-21T13:16:12.927Z,20.67
2023-04-21T13:18:39.817Z,19.88
2023-04-21T13:21:06.516Z,21.35
2023-04-21T13:23:34.861Z,21.70
2023-04-21T13:26:01.937Z,20.15
2023-04-21T13:28:29.192Z,18.75
2023-04-21T13:30:55.929Z,19.23
2023-04-21T13:33:23.419Z,19.55
2023-04-21T13:35:50.620Z,18.50
2023-04-21T13:38:17.341Z,19.20
2023-04-21T13:40:45.578Z,19.30
2023-04-21T13:43:12.832Z,17.48
2023-04-21T13:45:39.529Z,17.33
2023-04-21T13:48:06.756Z,16.20
2023-04-21T13:50:33.876Z,15.18
2023-04-21T13:53:00.479Z,13.52
2023-04-21T13:55:27.426Z,12.90
2023-04-21T13:57:54.963Z,11.00
2023-04-21T14:00:21.943Z,9.90
2023-04-21T14:02:49.496Z,10.40
2023-04-21T14:05:16.672Z,10.60
2023-04-21T14:07:44.557Z,9.90
2023-04-21T14:10:12.314Z,11.40
2023-04-21T14:12:39.701Z,13.00
2023-04-21T14:15:07.159Z,12.52
2023-04-21T14:17:34.583Z,12.98
2023-04-21T14:20:01.567Z,12.63
2023-04-21T14:22:28.932Z,12.80
2023-04-21T14:24:55.570Z,13.25
2023-04-21T14:27:22.934Z,14.30
2023-04-21T14:29:49.606Z,12.93
2023-04-21T14:32:17.118Z,12.77
2023-04-21T14:34:43.858Z,12.75
2023-04-21T14:37:11.168Z,13.45
2023-04-21T14:39:37.793Z,12.27
2023-04-21T14:42:05.135Z,11.82
2023-04-21T14:44:31.832Z,11.38
2023-04-21T14:47:08.940Z,10.63
2023-04-21T14:49:38.144Z,11.57
2023-04-21T14:52:05.583Z,10.32
2023-04-21T14:54:32.388Z,10.30
2023-04-21T14:57:17.670Z,12.00
2023-04-21T14:59:46.596Z,9.73
2023-04-21T15:02:14.539Z,9.60
2023-04-21T15:04:41.527Z,9.18
2023-04-21T15:07:08.914Z,8.57
2023-04-21T15:09:36.516Z,7.97
2023-04-21T15:12:04.324Z,8.93
2023-04-21T15:14:31.208Z,8.65
2023-04-21T15:16:58.551Z,8.68
2023-04-21T15:19:25.811Z,7.88
2023-04-21T15:21:53.347Z,8.38
2023-04-21T15:24:20.120Z,8.23
2023-04-21T15:26:47.372Z,7.72
2023-04-21T15:29:14.036Z,7.78
2023-04-21T15:31:41.549Z,6.70
2023-04-21T15:34:08.254Z,8.15
2023-04-21T15:36:35.887Z,7.75
2023-04-21T15:39:02.649Z,7.15
2023-04-21T15:41:31.744Z,7.35
2023-04-21T15:43:59.712Z,7.10
2023-04-21T15:46:27.353Z,6.88
2023-04-21T15:48:54.109Z,7.15
2023-04-21T15:51:21.344Z,7.35
2023-04-21T15:53:48.893Z,6.20
2023-04-21T15:56:16.908Z,7.60
2023-04-21T15:58:43.929Z,6.20
2023-04-21T16:01:11.572Z,5.88
2023-04-21T16:03:40.095Z,5.95
2023-04-21T16:06:08.048Z,6.80
2023-04-21T16:08:34.848Z,7.40
2023-04-21T16:11:02.244Z,7.20
2023-04-21T16:13:29.506Z,7.45
2023-04-21T16:15:56.868Z,7.18
2023-04-21T16:18:23.746Z,6.05
2023-04-21T16:20:51.341Z,6.75
2023-04-21T16:23:18.116Z,5.93
2023-04-21T16:25:45.563Z,6.30
2023-04-21T16:28:12.518Z,6.15
2023-04-21T16:30:43.813Z,4.80
2023-04-21T16:33:11.112Z,2.75
2023-04-21T16:35:39.348Z,3.25
2023-04-21T16:38:06.479Z,1.90
2023-04-21T16:40:33.887Z,1.80
2023-04-21T16:43:00.723Z,1.45
2023-04-21T16:45:29.788Z,2.22
2023-04-21T16:47:57.223Z,2.10
2023-04-21T16:50:24.399Z,2.20
2023-04-21T16:52:51.361Z,2.35
2023-04-21T16:55:19.135Z,2.03
2023-04-21T16:57:46.142Z,1.98
2023-04-21T17:00:14.084Z,2.00
2023-04-21T17:02:40.901Z,2.40
2023-04-21T17:05:08.766Z,2.10
2023-04-21T17:07:35.453Z,2.80
2023-04-21T17:10:02.797Z,2.13
2023-04-21T17:12:29.561Z,2.47
2023-04-21T17:14:56.492Z,2.38
2023-04-21T17:17:23.721Z,2.30
2023-04-21T17:19:52.864Z,2.60
2023-04-21T17:22:19.490Z,2.15
2023-04-21T17:24:53.269Z,2.00
2023-04-21T17:27:21.554Z,2.13
2023-04-21T17:29:48.674Z,2.25
2023-04-21T17:32:15.773Z,2.08
2023-04-21T17:34:42.865Z,2.33
2023-04-21T17:37:09.575Z,2.15
2023-04-21T17:39:36.667Z,2.38
2023-04-21T17:42:03.444Z,2.92
2023-04-21T17:44:31.267Z,2.15
2023-04-21T17:46:58.092Z,2.13
2023-04-21T17:49:26.282Z,2.78
2023-04-21T17:51:53.091Z,3.10
2023-04-21T17:54:20.481Z,2.85
2023-04-21T17:56:47.291Z,2.55
2023-04-21T17:59:14.588Z,2.83
2023-04-21T18:01:41.347Z,3.13
2023-04-21T18:04:08.953Z,2.30
2023-04-21T18:06:36.317Z,2.28
2023-04-21T18:09:05.220Z,2.42
2023-04-21T18:11:32.115Z,2.80
2023-04-21T18:13:59.699Z,2.58
2023-04-21T18:16:26.458Z,2.45
2023-04-21T18:18:53.974Z,2.90
2023-04-21T18:21:21.163Z,2.58
2023-04-21T18:23:49.044Z,2.50
2023-04-21T18:26:15.819Z,2.65
2023-04-21T18:28:42.787Z,2.65
2023-04-21T18:31:09.659Z,2.50
2023-04-21T18:33:37.100Z,2.60
2023-04-21T18:36:03.991Z,2.80
2023-04-21T18:38:31.375Z,2.55
2023-04-21T18:40:58.024Z,2.78
2023-04-21T18:43:25.608Z,3.05
2023-04-21T18:45:52.719Z,3.55
2023-04-21T18:48:19.725Z,4.10
2023-04-21T18:50:46.748Z,2.90
2023-04-21T18:53:15.076Z,3.67
2023-04-21T18:55:41.676Z,3.83
2023-04-21T18:58:08.918Z,4.25
2023-04-21T19:00:38.725Z,3.88
2023-04-21T19:03:09.046Z,3.50
2023-04-21T19:05:37.541Z,3.30
2023-04-21T19:08:04.572Z,3.38
2023-04-21T19:10:34.369Z,3.63
2023-04-21T19:13:01.875Z,3.70
2023-04-21T19:15:28.623Z,3.85
2023-04-21T19:17:55.864Z,4.22
2023-04-21T19:20:22.526Z,3.90
2023-04-21T19:22:49.296Z,3.38
2023-04-21T19:25:17.327Z,2.72
2023-04-21T19:27:44.398Z,2.92
2023-04-21T19:30:11.231Z,3.00
2023-04-21T19:32:38.184Z,2.70
2023-04-21T19:35:05.274Z,3.03
2023-04-21T19:37:34.410Z,3.50
2023-04-21T19:40:03.189Z,3.25
2023-04-21T19:42:30.819Z,3.58
2023-04-21T19:44:58.349Z,2.78
2023-04-21T19:47:24.948Z,3.33
2023-04-21T19:49:52.254Z,3.20
2023-04-21T19:52:19.277Z,2.83
2023-04-21T19:54:45.878Z,1.90
2023-04-21T19:57:12.916Z,1.65
2023-04-21T19:59:39.871Z,1.70
2023-04-21T20:02:07.377Z,1.95
2023-04-21T20:04:34.890Z,2.25
2023-04-21T20:07:01.961Z,2.25
2023-04-21T20:09:29.620Z,1.90
2023-04-21T20:11:56.515Z,2.10
2023-04-21T20:14:23.496Z,2.00
2023-04-21T20:16:50.217Z,2.35
2023-04-21T20:19:17.739Z,2.65
2023-04-21T20:21:44.656Z,2.08
2023-04-21T20:24:12.193Z,2.10
2023-04-21T20:26:38.824Z,2.60
2023-04-21T20:29:05.836Z,2.42
2023-04-21T20:31:33.106Z,2.58
2023-04-21T20:34:00.502Z,2.50
2023-04-21T20:36:27.492Z,2.40
2023-04-21T20:38:57.280Z,2.78
2023-04-21T20:41:24.039Z,3.40
2023-04-21T20:43:51.334Z,2.83
2023-04-21T20:46:18.428Z,3.78
2023-04-21T20:48:45.997Z,3.05
2023-04-21T20:51:13.455Z,3.85
2023-04-21T20:53:40.706Z,4.05
2023-04-21T20:56:07.707Z,3.50
2023-04-21T20:58:35.982Z,3.42
2023-04-21T21:01:02.734Z,3.72
2023-04-21T21:03:31.051Z,4.10
2023-04-21T21:05:57.849Z,4.00
2023-04-21T21:08:24.545Z,4.07
2023-04-21T21:10:51.240Z,4.00
2023-04-21T21:13:18.511Z,4.57
2023-04-21T21:15:45.914Z,4.40
2023-04-21T21:18:13.614Z,5.18
2023-04-21T21:20:40.298Z,5.70
2023-04-21T21:23:07.777Z,5.57
2023-04-21T21:25:34.629Z,5.70
2023-04-21T21:28:01.869Z,5.50
2023-04-21T21:30:28.575Z,5.78
2023-04-21T21:32:56.201Z,6.50
2023-04-21T21:35:22.974Z,8.32
2023-04-21T21:37:50.467Z,7.82
2023-04-21T21:40:17.130Z,8.07
2023-04-21T21:42:44.491Z,7.90
2023-04-21T21:45:11.522Z,7.45
2023-04-21T21:47:42.951Z,7.93
2023-04-21T21:50:12.433Z,7.88
2023-04-21T21:52:39.757Z,9.23
2023-04-21T21:55:06.952Z,8.68
2023-04-21T21:57:34.382Z,9.48
2023-04-21T22:00:01.812Z,8.57
2023-04-21T22:02:32.296Z,7.80
2023-04-21T22:04:59.441Z,7.95
2023-04-21T22:07:26.871Z,7.03
2023-04-21T22:09:53.614Z,8.23
2023-04-21T22:12:21.011Z,9.05
2023-04-21T22:14:47.724Z,9.38
2023-04-21T22:17:16.086Z,9.52
2023-04-21T22:19:42.820Z,8.60
2023-04-21T22:22:10.800Z,8.20
2023-04-21T22:24:37.938Z,9.35
2023-04-21T22:27:05.288Z,10.50
2023-04-21T22:29:31.948Z,11.27
2023-04-21T22:31:59.200Z,10.90
2023-04-21T22:34:25.896Z,11.30
2023-04-21T22:36:53.634Z,10.63
2023-04-21T22:39:20.822Z,12.15
2023-04-21T22:41:48.022Z,11.73
2023-04-21T22:44:14.661Z,12.90
2023-04-21T22:46:43.080Z,14.20
2023-04-21T22:49:09.825Z,14.32
2023-04-21T22:51:37.106Z,14.55
2023-04-21T22:54:03.929Z,14.82
2023-04-21T22:56:31.717Z,14.40
2023-04-21T22:58:58.539Z,15.65
2023-04-21T23:01:25.952Z,15.07
2023-04-21T23:03:52.703Z,16.17
2023-04-21T23:06:20.105Z,15.27
2023-04-21T23:08:46.754Z,15.88
2023-04-21T23:11:14.319Z,15.02
2023-04-21T23:13:41.168Z,14.15
2023-04-21T23:16:08.549Z,15.50
2023-04-21T23:18:35.801Z,15.75
2023-04-21T23:21:03.215Z,15.45
2023-04-21T23:23:29.908Z,15.65
2023-04-21T23:25:57.141Z,15.88
2023-04-21T23:28:24.218Z,15.82
2023-04-21T23:30:51.717Z,14.85
2023-04-21T23:33:18.500Z,16.17
2023-04-21T23:35:45.945Z,16.38
2023-04-21T23:38:12.714Z,15.10
2023-04-21T23:40:40.051Z,17.52
2023-04-21T23:43:07.333Z,18.42
2023-04-21T23:45:34.724Z,18.10
2023-04-21T23:48:01.482Z,19.33
2023-04-21T23:50:28.991Z,18.52
2023-04-21T23:52:55.881Z,19.48
2023-04-21T23:55:23.223Z,19.80
2023-04-21T23:57:49.858Z,21.65
